Time;durP1;ratioP1;P1;durP2;ratioP2;P2;SDS_P1;SDS_P2;PMS_P1;PMS_P2;Temp;Humidity;BMP_temperature;BMP_pressure;BME280_temperature;BME280_humidity;BME280_pressure;Samples;Min_cycle;Max_cycle;Signal;HPM_P1;HPM_P2
2022/07/17 00:00:05;;;;;;;6.90;4.50;;;;;;;18.05;79.54;101209.56;106035;1263;61387;-76
2022/07/17 00:02:55;;;;;;;6.60;4.80;;;;;;;18.00;80.45;101214.44;105926;1261;75346;-75
2022/07/17 00:05:24;;;;;;;7.60;4.80;;;;;;;17.98;80.42;101213.19;105962;1263;61967;-72
2022/07/17 00:07:54;;;;;;;6.80;4.70;;;;;;;17.97;80.60;101217.93;105704;1265;70717;-75
2022/07/17 00:10:23;;;;;;;8.90;4.70;;;;;;;17.91;79.78;101222.04;106049;1262;74615;-76
2022/07/17 00:12:52;;;;;;;7.20;4.90;;;;;;;17.84;79.99;101223.80;105823;1261;63553;-76
2022/07/17 00:15:21;;;;;;;6.80;4.40;;;;;;;17.71;79.81;101222.86;105910;1263;61094;-75
2022/07/17 00:17:50;;;;;;;8.50;4.70;;;;;;;17.65;78.60;101227.13;105689;1265;63669;-75
2022/07/17 00:20:19;;;;;;;8.00;4.70;;;;;;;17.54;78.76;101227.31;105927;1264;61652;-76
2022/07/17 00:22:48;;;;;;;7.90;4.80;;;;;;;17.44;79.62;101227.62;106023;1261;60177;-77
2022/07/17 00:25:17;;;;;;;12.80;5.40;;;;;;;17.38;79.45;101228.06;106183;1262;72143;-78
2022/07/17 00:27:46;;;;;;;7.50;4.80;;;;;;;17.35;81.31;101227.48;106023;1263;61481;-77
2022/07/17 00:30:16;;;;;;;8.10;4.70;;;;;;;17.33;80.47;101230.77;105893;1264;58676;-76
2022/07/17 00:32:45;;;;;;;6.40;4.70;;;;;;;17.32;81.49;101237.23;105872;1264;72964;-76
2022/07/17 00:35:14;;;;;;;9.30;4.70;;;;;;;17.30;82.09;101239.94;106168;1264;71988;-77
2022/07/17 00:37:49;;;;;;;5.50;4.50;;;;;;;17.30;82.36;101235.64;105916;1263;70279;-77
2022/07/17 00:40:23;;;;;;;7.60;4.90;;;;;;;17.29;82.35;101233.16;105955;1263;74815;-74
2022/07/17 00:42:53;;;;;;;7.20;4.70;;;;;;;17.29;82.61;101238.75;105996;1263;62157;-74
2022/07/17 00:45:24;;;;;;;6.90;4.70;;;;;;;17.34;82.47;101241.80;105875;1264;60803;-76
2022/07/17 00:48:04;;;;;;;6.40;4.50;;;;;;;17.32;82.09;101245.39;105977;1264;73775;-74
2022/07/17 00:50:39;;;;;;;9.20;4.70;;;;;;;17.29;82.15;101247.77;105955;1264;70638;-75
2022/07/17 00:53:10;;;;;;;6.30;4.50;;;;;;;17.26;82.18;101248.20;106035;1264;68677;-77
2022/07/17 00:55:41;;;;;;;6.10;4.60;;;;;;;17.22;82.33;101247.85;105963;1263;63426;-75
2022/07/17 00:58:22;;;;;;;7.10;4.60;;;;;;;17.19;82.64;101244.38;105976;1264;60643;-76
2022/07/17 01:00:54;;;;;;;5.60;4.20;;;;;;;17.17;82.35;101243.16;105948;1262;59601;-75
2022/07/17 01:03:25;;;;;;;6.80;4.60;;;;;;;17.13;81.95;101240.21;105938;1261;72936;-75
2022/07/17 01:05:54;;;;;;;5.40;4.10;;;;;;;17.09;81.74;101242.88;105853;1264;69823;-74
2022/07/17 01:08:23;;;;;;;5.90;4.40;;;;;;;17.03;80.82;101243.27;105776;1263;68120;-75
2022/07/17 01:10:52;;;;;;;8.50;5.00;;;;;;;16.99;81.42;101240.14;105719;1264;74198;-75
2022/07/17 01:13:21;;;;;;;6.20;4.40;;;;;;;16.94;82.41;101238.91;105952;1264;63430;-75
2022/07/17 01:15:50;;;;;;;7.20;4.50;;;;;;;16.89;82.75;101241.87;105636;1265;59624;-75
2022/07/17 01:18:19;;;;;;;8.00;4.80;;;;;;;16.82;81.50;101242.34;105863;1264;71309;-76
2022/07/17 01:20:49;;;;;;;7.00;4.90;;;;;;;16.70;81.64;101237.42;105873;1264;71670;-74
2022/07/17 01:23:19;;;;;;;10.20;5.10;;;;;;;16.58;81.65;101245.36;105923;1262;69011;-75
2022/07/17 01:25:48;;;;;;;7.10;4.80;;;;;;;16.47;83.08;101244.04;105571;1265;71308;-77
2022/07/17 01:28:17;;;;;;;6.50;4.80;;;;;;;16.41;84.83;101251.05;105758;1263;62201;-75
2022/07/17 01:30:49;;;;;;;6.40;5.00;;;;;;;16.36;83.17;101254.83;105725;1263;60613;-78
2022/07/17 01:33:21;;;;;;;7.70;4.90;;;;;;;16.29;82.90;101254.08;105972;1263;73747;-75
2022/07/17 01:35:52;;;;;;;7.50;5.10;;;;;;;16.23;82.88;101252.36;105979;1263;72649;-76
2022/07/17 01:38:20;;;;;;;11.20;5.40;;;;;;;16.16;82.96;101252.06;106224;1261;71134;-75
2022/07/17 01:40:51;;;;;;;6.20;4.90;;;;;;;16.10;84.96;101250.44;106032;1261;73348;-76
2022/07/17 01:43:20;;;;;;;8.70;5.20;;;;;;;16.06;83.54;101252.58;106157;1261;62041;-75
2022/07/17 01:45:49;;;;;;;6.50;4.90;;;;;;;16.03;83.19;101253.73;106064;1262;60278;-76
2022/07/17 01:48:26;;;;;;;10.40;5.30;;;;;;;16.01;83.95;101244.39;106008;1262;71205;-77
2022/07/17 01:50:56;;;;;;;6.00;4.70;;;;;;;16.05;87.20;101238.96;106014;1263;70428;-78
2022/07/17 01:53:25;;;;;;;7.50;5.10;;;;;;;16.06;87.52;101244.85;106122;1263;70275;-80
2022/07/17 01:55:54;;;;;;;6.60;5.30;;;;;;;16.07;87.31;101241.63;106226;1261;72655;-73
2022/07/17 01:58:23;;;;;;;5.60;4.80;;;;;;;16.08;87.17;101241.80;106025;1263;63055;-79
2022/07/17 02:00:53;;;;;;;7.40;5.20;;;;;;;16.09;87.02;101244.96;106067;1263;59660;-74
2022/07/17 02:03:22;;;;;;;11.90;6.20;;;;;;;16.08;87.08;101246.56;106246;1262;74769;-74
2022/07/17 02:05:51;;;;;;;10.20;5.40;;;;;;;16.06;87.12;101250.81;106024;1263;70198;-75
2022/07/17 02:08:21;;;;;;;6.70;4.90;;;;;;;16.03;87.47;101251.40;106170;1262;68048;-75
2022/07/17 02:10:50;;;;;;;8.10;5.00;;;;;;;16.02;87.51;101252.41;106174;1263;73488;-74
2022/07/17 02:13:18;;;;;;;10.30;4.80;;;;;;;15.99;86.61;101256.73;105873;1263;63851;-75
2022/07/17 02:15:47;;;;;;;7.90;5.70;;;;;;;15.94;86.40;101259.08;105883;1263;61127;-75
2022/07/17 02:18:16;;;;;;;7.60;4.90;;;;;;;15.87;86.47;101258.41;105842;1263;73816;-75
2022/07/17 02:20:49;;;;;;;5.90;5.20;;;;;;;15.82;88.04;101259.19;106016;1263;73850;-75
2022/07/17 02:23:18;;;;;;;9.10;5.20;;;;;;;15.80;88.45;101255.02;105978;1263;68647;-77
2022/07/17 02:25:47;;;;;;;7.10;5.50;;;;;;;15.79;88.51;101248.56;106076;1262;72925;-76
2022/07/17 02:28:16;;;;;;;10.20;6.00;;;;;;;15.78;87.46;101249.23;105914;1263;60788;-76
2022/07/17 02:30:46;;;;;;;6.30;5.10;;;;;;;15.70;89.07;101255.49;106069;1263;59772;-78
2022/07/17 02:33:15;;;;;;;9.80;5.40;;;;;;;15.69;89.10;101254.52;106207;1263;73719;-79
2022/07/17 02:35:44;;;;;;;7.20;5.00;;;;;;;15.67;88.55;101256.30;105918;1263;72186;-80
2022/07/17 02:38:13;;;;;;;6.80;5.40;;;;;;;15.67;88.37;101260.73;106127;1262;71427;-80
2022/07/17 02:40:42;;;;;;;6.60;5.90;;;;;;;15.66;88.24;101267.82;105838;1263;73741;-79
2022/07/17 02:43:12;;;;;;;6.90;5.00;;;;;;;15.62;88.41;101272.00;105958;1263;62643;-76
2022/07/17 02:45:41;;;;;;;6.60;4.90;;;;;;;15.58;88.50;101275.05;105951;1263;60726;-75
2022/07/17 02:48:10;;;;;;;11.10;5.40;;;;;;;15.55;87.19;101285.69;106123;1263;72078;-77
2022/07/17 02:50:39;;;;;;;9.30;5.30;;;;;;;15.47;86.60;101289.37;106149;1261;73362;-76
2022/07/17 02:53:08;;;;;;;7.10;5.40;;;;;;;15.41;86.64;101292.54;106186;1261;71107;-78
2022/07/17 02:55:37;;;;;;;8.30;5.40;;;;;;;15.38;87.12;101291.85;106228;1263;74820;-77
2022/07/17 02:58:06;;;;;;;9.40;6.90;;;;;;;15.44;87.87;101288.60;106185;1263;64357;-77
2022/07/17 03:00:35;;;;;;;8.90;6.20;;;;;;;15.41;88.90;101290.23;106114;1261;60976;-74
2022/07/17 03:03:03;;;;;;;8.90;5.40;;;;;;;15.38;89.32;101290.79;105924;1262;74297;-77
2022/07/17 03:05:33;;;;;;;10.00;6.30;;;;;;;15.38;89.16;101292.95;106182;1263;71035;-76
2022/07/17 03:08:02;;;;;;;9.40;6.80;;;;;;;15.37;89.08;101302.48;106023;1263;69538;-76
2022/07/17 03:10:32;;;;;;;8.70;5.70;;;;;;;15.42;88.25;101307.34;105974;1263;74093;-76
2022/07/17 03:13:01;;;;;;;8.60;6.10;;;;;;;15.46;88.74;101321.38;106190;1263;60672;-76
2022/07/17 03:15:31;;;;;;;7.30;5.70;;;;;;;15.53;88.10;101346.30;106097;1263;59119;-76
2022/07/17 03:18:00;;;;;;;7.70;5.90;;;;;;;15.60;87.76;101352.04;106025;1263;71013;-74
2022/07/17 03:20:29;;;;;;;6.80;4.80;;;;;;;15.71;88.04;101341.09;106196;1263;69880;-77
2022/07/17 03:22:58;;;;;;;6.70;4.90;;;;;;;15.85;87.50;101337.46;106093;1264;68044;-76
2022/07/17 03:25:27;;;;;;;10.70;5.20;;;;;;;15.99;86.81;101352.27;106287;1263;73985;-77
2022/07/17 03:27:55;;;;;;;6.00;4.70;;;;;;;16.15;86.95;101352.10;106110;1263;64248;-76
2022/07/17 03:30:24;;;;;;;9.30;5.40;;;;;;;16.30;86.51;101350.78;106121;1263;58987;-75
2022/07/17 03:32:53;;;;;;;6.40;5.10;;;;;;;16.43;86.24;101351.61;106134;1263;71856;-76
2022/07/17 03:35:22;;;;;;;7.30;5.10;;;;;;;16.56;85.63;101350.98;106095;1263;69678;-75
2022/07/17 03:37:51;;;;;;;8.90;6.50;;;;;;;16.63;85.29;101358.27;105908;1263;68838;-75
2022/07/17 03:40:20;;;;;;;8.20;5.50;;;;;;;16.68;84.95;101362.08;105952;1263;71792;-77
2022/07/17 03:42:49;;;;;;;9.70;6.00;;;;;;;16.74;84.31;101364.43;106660;1263;61394;-78
2022/07/17 03:45:18;;;;;;;8.90;5.50;;;;;;;16.76;83.83;101368.14;105984;1263;59218;-77
2022/07/17 03:47:47;;;;;;;9.00;5.80;;;;;;;16.74;83.52;101374.98;106576;1263;69903;-73
2022/07/17 03:50:16;;;;;;;7.80;5.80;;;;;;;16.76;82.73;101377.80;107231;1262;69224;-75
2022/07/17 03:52:46;;;;;;;7.40;5.40;;;;;;;16.76;82.01;101376.77;107091;1262;68614;-74
2022/07/17 03:55:16;;;;;;;8.90;5.60;;;;;;;16.78;81.28;101377.65;106303;1261;73226;-80
2022/07/17 03:57:45;;;;;;;7.70;5.40;;;;;;;16.82;80.36;101379.87;106058;1263;62202;-75
2022/07/17 04:00:15;;;;;;;7.50;5.40;;;;;;;16.87;79.88;101375.92;106200;1263;60106;-76
2022/07/17 04:02:44;;;;;;;7.70;4.70;;;;;;;16.90;78.90;101384.30;106206;1261;73806;-76
2022/07/17 04:05:13;;;;;;;8.30;5.00;;;;;;;16.91;77.66;101388.23;106363;1263;70423;-78
2022/07/17 04:07:43;;;;;;;7.60;4.40;;;;;;;16.94;77.54;101390.29;106037;1263;68037;-78
2022/07/17 04:10:14;;;;;;;5.40;4.20;;;;;;;16.99;76.52;101394.77;106079;1263;71349;-74
2022/07/17 04:12:44;;;;;;;6.10;4.20;;;;;;;17.05;75.23;101390.66;105977;1263;62908;-76
2022/07/17 04:15:12;;;;;;;5.40;3.80;;;;;;;17.13;74.18;101393.15;106108;1263;62367;-75
2022/07/17 04:17:41;;;;;;;7.10;4.60;;;;;;;17.19;73.55;101402.30;106048;1262;71182;-75
2022/07/17 04:20:11;;;;;;;6.30;3.80;;;;;;;17.24;72.28;101410.51;106027;1263;72832;-75
2022/07/17 04:22:39;;;;;;;6.50;3.70;;;;;;;17.34;71.45;101406.02;105845;1263;70911;-77
2022/07/17 04:25:09;;;;;;;7.10;3.50;;;;;;;17.42;70.65;101405.52;105993;1262;72829;-77
2022/07/17 04:27:37;;;;;;;7.80;3.70;;;;;;;17.48;69.69;101411.45;106094;1263;60836;-74
2022/07/17 04:30:08;;;;;;;7.50;3.40;;;;;;;17.53;68.80;101414.75;105957;1263;60173;-76
2022/07/17 04:32:37;;;;;;;10.90;3.70;;;;;;;17.53;67.96;101417.89;105989;1263;74893;-77
2022/07/17 04:35:06;;;;;;;5.50;2.80;;;;;;;17.64;67.33;101422.01;105819;1263;72550;-78
2022/07/17 04:37:35;;;;;;;5.90;3.00;;;;;;;17.69;66.21;101421.73;106173;1261;70968;-76
2022/07/17 04:40:05;;;;;;;5.70;3.30;;;;;;;17.72;65.98;101430.06;106039;1263;71462;-78
2022/07/17 04:42:34;;;;;;;6.10;3.30;;;;;;;17.80;65.76;101425.00;106095;1261;59657;-75
2022/07/17 04:45:05;;;;;;;6.70;3.50;;;;;;;17.89;65.41;101430.70;105865;1263;59833;-76
2022/07/17 04:47:35;;;;;;;10.00;3.20;;;;;;;18.09;64.82;101431.64;105878;1263;72631;-76
2022/07/17 04:50:04;;;;;;;4.50;2.50;;;;;;;18.14;64.82;101434.86;105652;1263;72343;-78
2022/07/17 04:52:34;;;;;;;6.10;2.80;;;;;;;18.19;63.97;101439.36;106006;1262;71125;-77
2022/07/17 04:55:04;;;;;;;5.70;3.10;;;;;;;18.16;63.78;101437.34;106011;1263;63892;-78
2022/07/17 04:57:33;;;;;;;4.50;3.00;;;;;;;18.16;63.96;101432.20;105948;1262;59611;-76
2022/07/17 05:00:08;;;;;;;3.60;2.70;;;;;;;18.16;63.26;101434.89;106166;1263;59947;-78
2022/07/17 05:02:38;;;;;;;4.00;2.50;;;;;;;18.10;62.97;101433.13;105972;1264;63886;-78
2022/07/17 05:05:08;;;;;;;6.60;2.80;;;;;;;18.01;62.65;101435.00;106065;1262;71736;-76
2022/07/17 05:07:37;;;;;;;4.90;3.00;;;;;;;18.01;62.32;101433.11;106008;1263;69685;-76
2022/07/17 05:10:08;;;;;;;5.40;2.70;;;;;;;17.95;61.86;101432.53;106158;1262;73502;-76
2022/07/17 05:12:37;;;;;;;4.30;2.50;;;;;;;18.02;61.34;101441.12;105827;1263;59673;-78
2022/07/17 05:15:07;;;;;;;5.40;2.30;;;;;;;17.98;61.07;101439.53;106063;1263;59657;-75
2022/07/17 05:17:35;;;;;;;3.30;2.10;;;;;;;17.96;60.96;101437.55;105970;1263;73776;-75
2022/07/17 05:20:06;;;;;;;4.50;2.60;;;;;;;17.99;60.87;101438.40;105998;1263;73624;-78
2022/07/17 05:22:35;;;;;;;3.20;2.10;;;;;;;17.99;60.38;101442.92;106088;1262;70734;-76
2022/07/17 05:25:05;;;;;;;7.20;2.20;;;;;;;17.89;60.06;101440.52;106045;1263;73617;-75
2022/07/17 05:27:37;;;;;;;5.10;2.10;;;;;;;17.84;60.27;101449.62;106174;1261;62952;-80
2022/07/17 05:30:07;;;;;;;3.20;2.10;;;;;;;17.84;59.90;101454.02;106251;1261;59640;-79
2022/07/17 05:32:36;;;;;;;3.70;2.50;;;;;;;17.72;59.81;101459.46;106270;1263;72557;-78
2022/07/17 05:35:06;;;;;;;3.80;2.10;;;;;;;17.77;59.81;101463.45;105872;1263;70656;-77
2022/07/17 05:37:35;;;;;;;4.40;1.80;;;;;;;17.82;59.21;101464.31;106231;1262;68463;-80
2022/07/17 05:40:05;;;;;;;2.90;1.90;;;;;;;17.86;58.56;101466.65;106075;1263;74446;-79
2022/07/17 05:42:34;;;;;;;3.60;2.10;;;;;;;17.90;58.50;101470.93;106296;1261;60559;-79
2022/07/17 05:45:04;;;;;;;3.60;1.90;;;;;;;17.93;58.22;101475.22;106210;1263;59683;-75
2022/07/17 05:47:33;;;;;;;3.30;2.20;;;;;;;17.94;57.66;101480.09;106158;1262;72544;-76
2022/07/17 05:50:03;;;;;;;3.30;1.70;;;;;;;17.96;56.30;101486.70;106134;1262;70466;-74
2022/07/17 05:52:32;;;;;;;6.00;1.80;;;;;;;18.01;56.18;101481.73;106224;1261;70160;-75
2022/07/17 05:55:01;;;;;;;3.70;1.60;;;;;;;18.09;55.26;101486.84;106346;1261;74228;-75
2022/07/17 05:57:29;;;;;;;3.20;1.90;;;;;;;18.22;54.47;101485.56;106153;1261;58086;-75
2022/07/17 05:59:58;;;;;;;2.60;1.40;;;;;;;18.27;54.56;101482.15;106208;1261;57850;-79
2022/07/17 06:02:28;;;;;;;4.70;2.10;;;;;;;18.32;54.16;101482.71;106392;1261;73838;-79
2022/07/17 06:04:57;;;;;;;3.00;1.60;;;;;;;18.25;54.21;101483.16;106203;1261;60728;-77
2022/07/17 06:07:26;;;;;;;2.40;1.60;;;;;;;18.33;54.76;101488.23;106091;1263;60119;-75
2022/07/17 06:09:55;;;;;;;4.70;1.80;;;;;;;18.39;54.63;101488.77;106221;1263;62557;-77
2022/07/17 06:12:23;;;;;;;2.80;1.60;;;;;;;18.53;55.01;101493.47;106267;1262;61202;-79
2022/07/17 06:14:52;;;;;;;3.80;1.40;;;;;;;18.61;54.80;101493.42;105974;1261;58028;-77
2022/07/17 06:17:21;;;;;;;2.00;1.40;;;;;;;18.83;53.73;101501.05;106276;1263;72911;-76
2022/07/17 06:19:51;;;;;;;4.10;1.70;;;;;;;18.98;53.15;101494.39;106016;1263;72407;-76
2022/07/17 06:22:21;;;;;;;3.60;1.50;;;;;;;19.05;52.97;101505.54;106285;1262;60089;-76
2022/07/17 06:24:49;;;;;;;2.70;1.60;;;;;;;18.99;52.76;101504.65;106244;1262;73207;-77
2022/07/17 06:27:18;;;;;;;2.60;1.50;;;;;;;19.03;52.96;101507.85;106136;1263;60459;-77
2022/07/17 06:29:47;;;;;;;5.10;1.80;;;;;;;19.18;53.21;101505.31;106189;1261;61227;-78
2022/07/17 06:32:24;;;;;;;4.00;1.50;;;;;;;19.37;52.91;101505.80;106275;1261;63888;-78
2022/07/17 06:34:53;;;;;;;2.30;1.60;;;;;;;19.54;52.42;101506.05;106343;1263;61013;-77
2022/07/17 06:37:22;;;;;;;2.80;1.70;;;;;;;19.52;52.16;101502.83;106178;1263;60052;-76
2022/07/17 06:39:51;;;;;;;2.90;1.80;;;;;;;19.44;52.41;101509.18;106369;1261;71519;-77
2022/07/17 06:42:19;;;;;;;2.90;1.70;;;;;;;19.37;52.67;101507.66;106311;1261;62917;-76
2022/07/17 06:44:48;;;;;;;3.10;1.90;;;;;;;19.44;52.92;101508.77;106205;1262;59714;-76
2022/07/17 06:47:17;;;;;;;2.20;1.70;;;;;;;19.47;52.92;101507.10;106222;1263;63897;-76
2022/07/17 06:49:46;;;;;;;5.30;2.00;;;;;;;19.49;53.21;101501.79;106358;1261;70693;-75
2022/07/17 06:52:15;;;;;;;4.30;2.00;;;;;;;19.57;53.35;101507.20;106276;1261;70299;-78
2022/07/17 06:54:44;;;;;;;4.10;1.70;;;;;;;19.49;53.66;101513.80;106342;1261;74110;-75
2022/07/17 06:57:12;;;;;;;5.10;1.90;;;;;;;19.43;54.03;101506.27;106119;1262;62342;-79
2022/07/17 06:59:41;;;;;;;3.20;1.90;;;;;;;19.32;53.33;101507.50;106252;1261;59150;-80
2022/07/17 07:02:10;;;;;;;3.40;1.90;;;;;;;19.22;53.95;101514.27;106338;1262;64258;-78
2022/07/17 07:04:39;;;;;;;3.40;1.90;;;;;;;19.20;54.85;101511.81;106326;1261;60988;-78
2022/07/17 07:07:08;;;;;;;4.30;2.20;;;;;;;19.28;55.45;101516.11;106366;1261;68892;-75
2022/07/17 07:09:37;;;;;;;3.80;1.80;;;;;;;19.30;53.79;101512.91;106237;1261;73169;-79
2022/07/17 07:12:07;;;;;;;2.30;1.60;;;;;;;19.27;53.12;101517.64;106250;1261;61060;-76
2022/07/17 07:14:35;;;;;;;2.80;1.60;;;;;;;19.24;52.59;101512.11;106015;1262;61659;-76
2022/07/17 07:17:05;;;;;;;4.50;1.30;;;;;;;19.19;53.17;101517.45;105980;1261;74635;-77
2022/07/17 07:19:34;;;;;;;2.20;1.30;;;;;;;19.24;52.02;101512.88;106297;1261;61767;-78
2022/07/17 07:22:03;;;;;;;2.30;1.40;;;;;;;19.27;52.37;101510.73;106193;1263;60012;-78
2022/07/17 07:24:32;;;;;;;3.30;1.40;;;;;;;19.44;52.32;101509.68;106282;1261;73361;-79
2022/07/17 07:27:01;;;;;;;3.20;1.40;;;;;;;19.50;51.90;101515.65;106099;1261;61389;-79
2022/07/17 07:29:29;;;;;;;1.50;1.00;;;;;;;19.66;51.69;101512.20;106252;1261;61795;-80
2022/07/17 07:31:58;;;;;;;2.50;1.40;;;;;;;19.69;51.79;101509.52;106041;1263;64314;-81
2022/07/17 07:34:27;;;;;;;2.50;1.20;;;;;;;19.81;51.75;101509.23;106419;1261;61623;-77
2022/07/17 07:36:56;;;;;;;1.40;1.10;;;;;;;19.92;51.47;101514.76;106169;1262;70731;-78
2022/07/17 07:39:25;;;;;;;1.70;1.10;;;;;;;19.97;50.07;101514.95;106090;1263;74354;-77
2022/07/17 07:41:54;;;;;;;2.80;1.30;;;;;;;19.82;49.65;101527.56;106195;1261;61893;-77
2022/07/17 07:44:23;;;;;;;2.60;1.30;;;;;;;19.73;50.73;101532.53;106011;1261;61455;-75
2022/07/17 07:46:59;;;;;;;4.10;1.40;;;;;;;19.63;51.79;101529.23;106015;1263;64323;-78
2022/07/17 07:49:29;;;;;;;2.50;1.40;;;;;;;19.84;51.82;101529.57;106139;1262;61122;-78
2022/07/17 07:52:07;;;;;;;2.20;1.50;;;;;;;19.96;51.69;101526.70;106405;1261;59317;-79
2022/07/17 07:54:36;;;;;;;2.60;1.20;;;;;;;19.97;51.01;101529.00;106178;1261;63713;-79
2022/07/17 07:57:05;;;;;;;2.00;1.40;;;;;;;19.99;50.53;101538.73;106173;1263;61673;-79
2022/07/17 07:59:34;;;;;;;3.60;1.50;;;;;;;19.91;50.56;101538.68;106097;1262;61832;-80
2022/07/17 08:02:03;;;;;;;2.60;1.50;;;;;;;19.79;50.89;101538.06;106223;1262;75319;-80
2022/07/17 08:04:31;;;;;;;3.60;1.90;;;;;;;19.70;51.80;101541.41;106143;1262;71913;-78
2022/07/17 08:07:00;;;;;;;3.10;1.90;;;;;;;19.76;52.40;101537.27;106218;1262;59833;-76
2022/07/17 08:09:29;;;;;;;3.70;1.90;;;;;;;19.84;52.25;101539.71;106372;1262;71459;-79
2022/07/17 08:11:58;;;;;;;3.80;2.00;;;;;;;19.90;52.64;101542.48;106397;1261;60662;-80
2022/07/17 08:14:30;;;;;;;4.10;1.90;;;;;;;19.98;52.24;101542.95;106286;1261;58004;-77
2022/07/17 08:16:59;;;;;;;3.50;1.80;;;;;;;20.03;51.66;101540.52;106471;1261;63962;-78
2022/07/17 08:19:28;;;;;;;7.20;2.20;;;;;;;19.95;51.17;101548.17;106267;1263;62664;-79
2022/07/17 08:21:57;;;;;;;5.60;2.00;;;;;;;19.67;52.11;101542.80;106341;1261;60130;-79
2022/07/17 08:24:26;;;;;;;4.20;1.90;;;;;;;19.55;52.71;101545.90;106337;1261;73277;-77
2022/07/17 08:26:56;;;;;;;2.80;1.80;;;;;;;19.59;52.77;101546.59;106183;1261;61743;-77
2022/07/17 08:29:25;;;;;;;3.30;1.90;;;;;;;19.74;52.47;101543.67;106242;1261;61819;-79
2022/07/17 08:32:13;;;;;;;2.80;1.70;;;;;;;20.02;51.93;101540.17;106265;1261;64402;-77
2022/07/17 08:34:42;;;;;;;3.50;2.20;;;;;;;20.25;51.46;101546.04;106282;1261;61520;-79
2022/07/17 08:37:11;;;;;;;3.00;1.90;;;;;;;20.36;50.84;101544.45;106199;1263;60033;-80
2022/07/17 08:39:39;;;;;;;3.80;2.30;;;;;;;20.26;50.65;101536.09;106111;1261;73956;-78
2022/07/17 08:42:16;;;;;;;3.30;2.00;;;;;;;20.15;51.50;101540.15;106194;1261;58723;-84
2022/07/17 08:44:46;;;;;;;4.00;2.10;;;;;;;19.95;51.96;101546.87;106307;1261;60659;-78
2022/07/17 08:47:15;;;;;;;2.80;2.10;;;;;;;19.95;52.06;101542.48;106392;1261;74223;-78
2022/07/17 08:49:48;;;;;;;3.40;1.90;;;;;;;20.04;51.62;101540.75;106349;1261;61372;-78
2022/07/17 08:52:17;;;;;;;2.60;1.70;;;;;;;20.20;51.21;101536.30;106338;1261;70760;-79
2022/07/17 08:54:46;;;;;;;4.00;2.00;;;;;;;20.40;50.89;101539.23;106187;1263;63311;-77
2022/07/17 08:57:15;;;;;;;4.40;2.20;;;;;;;20.45;51.00;101534.70;106180;1261;59625;-80
2022/07/17 08:59:48;;;;;;;3.30;1.90;;;;;;;20.43;50.42;101538.92;106204;1261;59442;-79
2022/07/17 09:02:16;;;;;;;4.80;1.70;;;;;;;20.50;49.71;101538.39;106207;1261;73817;-78
2022/07/17 09:04:56;;;;;;;3.40;1.70;;;;;;;20.52;48.67;101538.80;106337;1261;62417;-78
2022/07/17 09:07:25;;;;;;;2.60;1.60;;;;;;;20.69;47.58;101538.28;106345;1261;70702;-77
2022/07/17 09:09:55;;;;;;;3.40;1.50;;;;;;;20.76;46.29;101545.16;106137;1262;63817;-79
2022/07/17 09:12:29;;;;;;;3.90;1.40;;;;;;;20.76;45.47;101542.34;106399;1261;61847;-79
2022/07/17 09:14:58;;;;;;;4.20;1.90;;;;;;;20.76;45.40;101550.77;106208;1263;59674;-78
2022/07/17 09:17:28;;;;;;;2.10;1.40;;;;;;;20.89;44.49;101548.95;106334;1261;63882;-78
2022/07/17 09:19:57;;;;;;;1.70;1.20;;;;;;;21.04;43.70;101558.69;106308;1261;71161;-77
2022/07/17 09:22:26;;;;;;;3.80;1.30;;;;;;;21.04;42.70;101553.46;106103;1261;70501;-79
2022/07/17 09:24:58;;;;;;;7.50;1.50;;;;;;;21.16;42.68;101544.66;106282;1261;73901;-72
2022/07/17 09:27:33;;;;;;;2.80;1.20;;;;;;;21.26;42.36;101539.84;106148;1263;60080;-77
2022/07/17 09:30:10;;;;;;;3.30;1.30;;;;;;;21.37;42.46;101536.27;106039;1261;62303;-79
2022/07/17 09:32:41;;;;;;;2.60;1.10;;;;;;;21.43;42.33;101538.91;106428;1261;63988;-79
2022/07/17 09:35:11;;;;;;;3.40;1.20;;;;;;;21.39;41.90;101532.28;106574;1261;71368;-74
2022/07/17 09:37:40;;;;;;;2.20;1.20;;;;;;;21.68;41.79;101537.34;106525;1261;70349;-77
2022/07/17 09:41:09;;;;;;;4.70;1.40;;;;;;;21.90;41.17;101532.45;106606;1261;73902;-76
2022/07/17 09:43:03;;;;;;;2.20;1.30;;;;;;;22.02;40.24;101532.29;106344;1261;59579;-79
2022/07/17 09:45:34;;;;;;;2.00;1.10;;;;;;;22.04;39.92;101530.08;106188;1262;61742;-80
2022/07/17 09:48:04;;;;;;;2.00;1.10;;;;;;;22.10;39.43;101532.95;106147;1261;75333;-78
2022/07/17 09:50:35;;;;;;;2.50;1.30;;;;;;;21.99;39.48;101532.05;106043;1261;74025;-78
2022/07/17 09:53:05;;;;;;;2.50;1.30;;;;;;;22.18;38.74;101542.27;106158;1262;61469;-79
2022/07/17 09:55:34;;;;;;;2.70;1.20;;;;;;;22.04;38.16;101545.17;106150;1261;74060;-79
2022/07/17 09:58:21;;;;;;;1.90;1.10;;;;;;;21.87;38.86;101535.66;106221;1261;61308;-80
2022/07/17 10:00:50;;;;;;;2.10;1.10;;;;;;;22.04;37.93;101542.64;106371;1260;62544;-80
2022/07/17 10:03:20;;;;;;;3.80;1.10;;;;;;;21.95;37.17;101534.82;106230;1263;63453;-77
2022/07/17 10:05:49;;;;;;;2.20;1.30;;;;;;;21.94;37.51;101536.51;106399;1261;61048;-80
2022/07/17 10:08:19;;;;;;;2.40;1.30;;;;;;;22.06;37.42;101523.13;106316;1260;60523;-82
2022/07/17 10:10:49;;;;;;;2.50;1.30;;;;;;;22.26;37.21;101523.80;106244;1261;63666;-77
2022/07/17 10:13:19;;;;;;;2.10;1.40;;;;;;;22.35;37.11;101520.73;106177;1263;60626;-78
2022/07/17 10:15:49;;;;;;;2.10;1.10;;;;;;;22.27;37.46;101516.83;106154;1263;61697;-77
2022/07/17 10:18:21;;;;;;;3.80;1.20;;;;;;;22.30;37.23;101515.08;106258;1261;64667;-78
2022/07/17 10:20:50;;;;;;;2.30;1.20;;;;;;;22.34;37.04;101515.09;106269;1263;61701;-76
2022/07/17 10:23:19;;;;;;;2.20;1.30;;;;;;;22.45;36.63;101510.91;106220;1263;70339;-77
2022/07/17 10:25:58;;;;;;;1.90;1.20;;;;;;;22.61;36.56;101502.71;106032;1261;408244;-78
2022/07/17 10:28:47;;;;;;;3.40;1.10;;;;;;;22.95;35.13;101515.65;106395;1261;59600;-81
2022/07/17 10:31:24;;;;;;;1.60;0.90;;;;;;;23.06;34.55;101509.75;106448;1261;61722;-80
2022/07/17 10:34:06;;;;;;;4.10;1.20;;;;;;;23.12;34.26;101500.97;106075;1262;73266;-79
2022/07/17 10:36:43;;;;;;;4.00;0.90;;;;;;;23.34;34.80;101506.73;106169;1261;72558;-81
2022/07/17 10:39:20;;;;;;;1.40;1.00;;;;;;;23.59;34.27;101502.11;106268;1262;71280;-81
2022/07/17 10:42:00;;;;;;;1.70;0.90;;;;;;;23.82;33.72;101511.54;106297;1261;73989;-80
2022/07/17 10:44:31;;;;;;;2.10;1.10;;;;;;;23.90;32.57;101506.40;106161;1262;59688;-78
2022/07/17 10:47:00;;;;;;;2.30;1.10;;;;;;;23.92;31.84;101502.35;106192;1261;58300;-77
2022/07/17 10:49:29;;;;;;;2.20;1.20;;;;;;;24.02;32.12;101494.95;106240;1262;72742;-80
2022/07/17 10:51:58;;;;;;;2.80;1.30;;;;;;;24.37;31.49;101491.35;106310;1261;61738;-80
2022/07/17 10:54:33;;;;;;;1.50;1.00;;;;;;;24.42;31.88;101486.87;106184;1261;70466;-79
2022/07/17 10:57:04;;;;;;;2.40;1.30;;;;;;;24.60;31.61;101484.77;106058;1261;64887;-84
2022/07/17 10:59:33;;;;;;;4.20;1.30;;;;;;;24.65;31.62;101476.50;106126;1261;59693;-80
2022/07/17 11:02:02;;;;;;;2.00;1.30;;;;;;;24.89;31.39;101479.04;106294;1261;61464;-77
2022/07/17 11:04:39;;;;;;;4.00;1.30;;;;;;;25.31;31.14;101482.91;106510;1261;75444;-78
2022/07/17 11:07:15;;;;;;;2.50;1.40;;;;;;;25.63;30.31;101486.00;106345;1261;62357;-82
2022/07/17 11:09:48;;;;;;;2.60;1.60;;;;;;;25.70;29.99;101488.57;106360;1261;59335;-81
2022/07/17 11:12:17;;;;;;;2.70;1.10;;;;;;;25.63;29.58;101495.13;106192;1261;74139;-82
2022/07/17 11:14:47;;;;;;;2.60;1.40;;;;;;;25.46;30.14;101496.17;106209;1261;59661;-78
2022/07/17 11:17:19;;;;;;;1.80;1.30;;;;;;;25.40;30.02;101501.67;106332;1261;60837;-75
2022/07/17 11:19:48;;;;;;;;;;;;;;;25.64;29.69;101501.39;106177;1262;63712;-77
2022/07/17 11:22:17;;;;;;;3.40;1.30;;;;;;;25.77;29.69;101498.16;106156;1261;71823;-78
2022/07/17 11:24:48;;;;;;;2.60;1.30;;;;;;;25.65;29.72;101500.04;106135;1261;60531;-79
2022/07/17 11:27:26;;;;;;;2.20;1.10;;;;;;;25.61;29.61;101498.61;106287;1262;74391;-84
2022/07/17 11:29:59;;;;;;;2.80;1.30;;;;;;;25.99;29.64;101497.62;106426;1261;61151;-78